createdAt,value
2019-02-25T00:00:46.201Z,56.80
2019-02-25T00:03:14.013Z,57.19
2019-02-25T00:05:41.752Z,57.66
2019-02-25T00:08:09.555Z,57.43
2019-02-25T00:10:37.314Z,57.56
2019-02-25T00:13:05.076Z,57.40
2019-02-25T00:15:32.804Z,57.13
2019-02-25T00:18:00.768Z,56.71
2019-02-25T00:20:28.516Z,56.04
2019-02-25T00:22:56.296Z,56.24
2019-02-25T00:25:24.017Z,55.87
2019-02-25T00:27:51.955Z,55.87
2019-02-25T00:30:19.695Z,55.62
2019-02-25T00:32:47.934Z,55.88
2019-02-25T00:35:15.658Z,55.94
2019-02-25T00:37:43.435Z,55.88
2019-02-25T00:40:11.454Z,55.59
2019-02-25T00:42:39.417Z,55.59
2019-02-25T00:45:07.537Z,55.94
2019-02-25T00:47:35.443Z,56.16
2019-02-25T00:50:03.867Z,56.27
2019-02-25T00:52:31.785Z,56.39
2019-02-25T00:54:59.533Z,56.02
2019-02-25T00:57:27.309Z,56.40
2019-02-25T00:59:55.036Z,56.99
2019-02-25T01:02:22.995Z,56.90
2019-02-25T01:04:50.734Z,57.22
2019-02-25T01:07:18.680Z,57.04
2019-02-25T01:09:46.411Z,56.79
2019-02-25T01:12:14.360Z,57.09
2019-02-25T01:14:42.301Z,57.34
2019-02-25T01:17:10.068Z,57.27
2019-02-25T01:19:37.983Z,57.29
2019-02-25T01:22:05.753Z,57.38
2019-02-25T01:24:33.770Z,57.68
2019-02-25T01:27:01.526Z,57.73
2019-02-25T01:29:29.454Z,57.74
2019-02-25T01:31:57.353Z,57.63
2019-02-25T01:34:25.092Z,57.65
2019-02-25T01:36:52.868Z,57.51
2019-02-25T01:39:20.767Z,57.49
2019-02-25T01:41:48.518Z,57.78
2019-02-25T01:44:16.438Z,57.90
2019-02-25T01:46:44.204Z,57.79
2019-02-25T01:49:11.962Z,57.66
2019-02-25T01:51:39.710Z,57.88
2019-02-25T01:54:07.498Z,58.18
2019-02-25T01:56:35.228Z,57.99
2019-02-25T01:59:02.986Z,58.14
2019-02-25T02:01:30.716Z,58.20
2019-02-25T02:03:58.645Z,58.42
2019-02-25T02:06:26.367Z,58.40
2019-02-25T02:08:54.332Z,58.50
2019-02-25T02:11:22.084Z,58.26
2019-02-25T02:13:50.015Z,58.18
2019-02-25T02:16:17.753Z,58.34
2019-02-25T02:18:45.722Z,58.55
2019-02-25T02:21:13.487Z,58.69
2019-02-25T02:23:41.225Z,58.74
2019-02-25T02:26:09.511Z,58.94
2019-02-25T02:28:37.267Z,58.92
2019-02-25T02:31:05.118Z,59.03
2019-02-25T02:33:33.019Z,58.82
2019-02-25T02:36:00.802Z,59.07
2019-02-25T02:38:28.578Z,59.14
2019-02-25T02:40:56.498Z,59.17
2019-02-25T02:43:24.272Z,59.36
2019-02-25T02:46:08.780Z,59.30
2019-02-25T02:48:51.970Z,59.56
2019-02-25T02:51:19.701Z,59.63
2019-02-25T02:53:47.461Z,59.66
2019-02-25T02:56:15.347Z,59.84
2019-02-25T02:58:43.102Z,59.87
2019-02-25T03:01:10.851Z,59.97
2019-02-25T03:03:38.803Z,60.25
2019-02-25T03:06:06.539Z,60.56
2019-02-25T03:08:34.486Z,60.44
2019-02-25T03:11:02.213Z,60.27
2019-02-25T03:13:30.142Z,60.46
2019-02-25T03:15:58.079Z,60.68
2019-02-25T03:18:25.848Z,60.77
2019-02-25T03:20:53.625Z,60.87
2019-02-25T03:23:21.371Z,60.54
2019-02-25T03:25:49.112Z,60.42
2019-02-25T03:28:16.856Z,60.27
2019-02-25T03:30:44.764Z,60.25
2019-02-25T03:33:12.507Z,60.81
2019-02-25T03:35:40.262Z,60.59
2019-02-25T03:38:08.038Z,60.33
2019-02-25T03:40:35.891Z,60.50
2019-02-25T03:43:03.632Z,60.60
2019-02-25T03:45:31.408Z,60.80
2019-02-25T03:47:59.198Z,60.90
2019-02-25T03:50:26.989Z,60.66
2019-02-25T03:52:54.748Z,60.25
2019-02-25T03:55:23.104Z,59.91
2019-02-25T03:57:50.812Z,60.10
2019-02-25T04:00:20.709Z,60.05
2019-02-25T04:02:48.530Z,59.92
2019-02-25T04:05:16.332Z,59.87
2019-02-25T04:07:44.157Z,60.01
2019-02-25T04:10:12.234Z,60.05
2019-02-25T04:12:40.003Z,59.89
2019-02-25T04:15:11.487Z,59.91
2019-02-25T04:17:39.220Z,60.30
2019-02-25T04:20:10.439Z,60.74
2019-02-25T04:22:38.196Z,60.74
2019-02-25T04:25:06.122Z,60.21
2019-02-25T04:27:34.067Z,60.40
2019-02-25T04:30:01.973Z,60.41
2019-02-25T04:32:29.829Z,60.33
2019-02-25T04:34:57.737Z,60.44
2019-02-25T04:37:25.482Z,60.32
2019-02-25T04:39:53.237Z,60.28
2019-02-25T04:42:21.157Z,60.31
2019-02-25T04:44:51.263Z,60.25
2019-02-25T04:47:18.756Z,60.34
2019-02-25T04:49:46.664Z,60.37
2019-02-25T04:52:14.883Z,60.48
2019-02-25T04:54:42.667Z,60.26
2019-02-25T04:57:10.565Z,60.20
2019-02-25T04:59:38.301Z,60.38
2019-02-25T05:02:11.575Z,60.83
2019-02-25T05:04:39.342Z,60.96
2019-02-25T05:07:07.255Z,61.24
2019-02-25T05:09:35.025Z,60.83
2019-02-25T05:12:02.790Z,60.88
2019-02-25T05:14:30.566Z,60.63
2019-02-25T05:16:58.324Z,60.27
2019-02-25T05:19:26.094Z,60.38
2019-02-25T05:21:53.923Z,60.39
2019-02-25T05:24:21.718Z,60.49
2019-02-25T05:26:49.625Z,60.50
2019-02-25T05:29:17.418Z,60.46
2019-02-25T05:31:45.372Z,60.39
2019-02-25T05:34:13.405Z,60.39
2019-02-25T05:36:42.216Z,60.50
2019-02-25T05:39:09.942Z,60.56
2019-02-25T05:41:37.736Z,60.87
2019-02-25T05:44:05.505Z,60.63
2019-02-25T05:46:33.276Z,60.41
2019-02-25T05:49:01.058Z,60.43
2019-02-25T05:51:28.870Z,60.72
2019-02-25T05:53:56.637Z,60.53
2019-02-25T05:56:24.579Z,60.43
2019-02-25T05:58:52.297Z,60.62
2019-02-25T06:01:20.062Z,60.35
2019-02-25T06:03:47.844Z,60.40
2019-02-25T06:06:15.880Z,60.69
2019-02-25T06:08:43.635Z,60.94
2019-02-25T06:11:11.366Z,60.75
2019-02-25T06:13:39.161Z,60.74
2019-02-25T06:16:06.913Z,60.46
2019-02-25T06:18:34.691Z,60.32
2019-02-25T06:21:02.449Z,60.53
2019-02-25T06:23:30.231Z,60.31
2019-02-25T06:25:58.060Z,60.10
2019-02-25T06:28:26.019Z,62.44
2019-02-25T06:30:53.783Z,61.82
2019-02-25T06:33:21.558Z,62.17
2019-02-25T06:35:49.327Z,60.68
2019-02-25T06:38:17.118Z,59.63
2019-02-25T06:40:44.853Z,59.45
2019-02-25T06:43:12.610Z,59.03
2019-02-25T06:45:40.411Z,58.77
2019-02-25T06:48:08.191Z,58.65
2019-02-25T06:50:36.009Z,58.57
2019-02-25T06:53:03.908Z,58.29
2019-02-25T06:55:31.661Z,57.98
2019-02-25T06:57:59.561Z,57.63
2019-02-25T07:00:27.338Z,57.73
2019-02-25T07:02:55.071Z,57.28
2019-02-25T07:05:42.318Z,57.68
2019-02-25T07:08:16.213Z,57.61
2019-02-25T07:10:51.187Z,57.30
2019-02-25T07:13:36.804Z,56.87
2019-02-25T07:16:27.206Z,57.05
2019-02-25T07:19:11.739Z,56.24
2019-02-25T07:22:14.058Z,55.20
2019-02-25T07:25:01.422Z,55.06
2019-02-25T07:27:36.942Z,55.04
2019-02-25T07:30:29.797Z,54.64
2019-02-25T07:33:19.020Z,54.62
2019-02-25T07:35:59.704Z,53.77
2019-02-25T07:38:39.660Z,53.98
2019-02-25T07:41:24.337Z,53.63
2019-02-25T07:44:10.544Z,53.52
2019-02-25T07:46:54.142Z,53.85
2019-02-25T07:49:39.653Z,52.72
2019-02-25T07:52:25.221Z,51.95
2019-02-25T07:55:21.677Z,52.29
2019-02-25T07:58:05.796Z,52.47
2019-02-25T08:00:51.959Z,52.40
2019-02-25T08:03:42.453Z,52.15
2019-02-25T08:06:32.922Z,51.29
2019-02-25T08:09:09.295Z,50.88
2019-02-25T08:11:56.655Z,50.60
2019-02-25T08:14:39.036Z,50.55
2019-02-25T08:17:26.392Z,50.93
2019-02-25T08:20:28.600Z,50.68
2019-02-25T08:23:21.751Z,50.57
2019-02-25T08:26:24.037Z,50.33
2019-02-25T08:29:11.153Z,49.41
2019-02-25T08:31:54.285Z,49.46
2019-02-25T08:34:35.335Z,48.99
2019-02-25T08:37:51.375Z,48.12
2019-02-25T08:40:54.989Z,47.21
2019-02-25T08:43:29.793Z,46.89
2019-02-25T08:46:23.179Z,48.14
2019-02-25T08:48:54.543Z,46.36
2019-02-25T08:51:22.322Z,46.21
2019-02-25T08:53:50.282Z,46.07
2019-02-25T08:56:18.241Z,45.91
2019-02-25T08:58:46.034Z,45.75
2019-02-25T09:01:15.446Z,45.82
2019-02-25T09:03:43.457Z,46.01
2019-02-25T09:06:11.353Z,45.77
2019-02-25T09:08:39.216Z,45.86
2019-02-25T09:11:13.935Z,45.72
2019-02-25T09:13:36.702Z,45.52
2019-02-25T09:16:04.494Z,44.83
2019-02-25T09:18:32.276Z,44.93
2019-02-25T09:21:00.024Z,44.64
2019-02-25T09:23:27.834Z,44.20
2019-02-25T09:25:55.563Z,43.93
2019-02-25T09:28:23.334Z,43.50
2019-02-25T09:30:51.045Z,43.46
2019-02-25T09:33:18.835Z,43.01
2019-02-25T09:35:46.605Z,43.11
2019-02-25T09:38:14.396Z,42.76
2019-02-25T09:40:42.156Z,42.30
2019-02-25T09:43:09.946Z,42.03
2019-02-25T09:45:37.744Z,40.55
2019-02-25T09:48:05.550Z,40.06
2019-02-25T09:50:33.315Z,38.84
2019-02-25T09:53:01.091Z,38.11
2019-02-25T09:55:28.870Z,36.25
2019-02-25T09:57:56.663Z,34.00
2019-02-25T10:00:24.427Z,33.74
2019-02-25T10:02:52.234Z,32.47
2019-02-25T10:05:20.006Z,31.63
2019-02-25T10:07:47.829Z,31.22
2019-02-25T10:10:15.718Z,31.60
2019-02-25T10:12:43.582Z,31.66
2019-02-25T10:15:12.747Z,29.88
2019-02-25T10:17:40.497Z,29.00
2019-02-25T10:20:08.533Z,26.96
2019-02-25T10:22:36.357Z,23.21
2019-02-25T10:25:04.389Z,21.28
2019-02-25T10:27:32.206Z,19.61
2019-02-25T10:29:59.993Z,19.19
2019-02-25T10:32:29.784Z,20.39
2019-02-25T10:34:57.489Z,21.41
2019-02-25T10:37:25.306Z,22.97
2019-02-25T10:39:54.879Z,24.19
2019-02-25T10:42:22.672Z,25.50
2019-02-25T10:44:50.446Z,26.45
2019-02-25T10:47:19.856Z,27.21
2019-02-25T10:49:47.949Z,27.23
2019-02-25T10:52:17.348Z,27.35
2019-02-25T10:54:45.355Z,26.42
2019-02-25T10:57:19.401Z,25.25
2019-02-25T10:59:47.801Z,23.40
2019-02-25T11:02:17.389Z,21.67
2019-02-25T11:04:45.275Z,19.83
2019-02-25T11:07:13.022Z,19.91
2019-02-25T11:09:52.211Z,21.42
2019-02-25T11:12:21.601Z,23.24
2019-02-25T11:14:49.787Z,24.27
2019-02-25T11:17:18.316Z,24.83
2019-02-25T11:19:47.204Z,25.70
2019-02-25T11:22:16.359Z,27.90
2019-02-25T11:24:44.255Z,27.10
2019-02-25T11:27:12.044Z,23.56
2019-02-25T11:29:40.511Z,19.28
2019-02-25T11:32:09.668Z,16.74
2019-02-25T11:34:37.794Z,14.26
2019-02-25T11:37:07.245Z,12.75
2019-02-25T11:39:37.263Z,12.72
2019-02-25T11:42:07.831Z,12.18
2019-02-25T11:44:38.476Z,11.99
2019-02-25T11:47:06.278Z,11.97
2019-02-25T11:49:34.036Z,12.65
2019-02-25T11:52:01.934Z,12.74
2019-02-25T11:54:29.788Z,12.33
2019-02-25T11:56:57.820Z,12.13
2019-02-25T11:59:25.623Z,11.86
2019-02-25T12:01:53.455Z,11.06
2019-02-25T12:04:21.222Z,11.24
2019-02-25T12:06:48.999Z,11.58
2019-02-25T12:09:16.758Z,11.03
2019-02-25T12:11:44.750Z,9.95
2019-02-25T12:14:12.611Z,9.14
2019-02-25T12:16:40.687Z,8.66
2019-02-25T12:19:17.596Z,9.04
2019-02-25T12:21:38.119Z,8.80
2019-02-25T12:24:05.951Z,9.97
2019-02-25T12:26:33.711Z,10.27
2019-02-25T12:29:08.493Z,11.49
2019-02-25T12:31:31.236Z,11.32
2019-02-25T12:33:59.009Z,11.94
2019-02-25T12:36:26.789Z,12.10
2019-02-25T12:38:54.599Z,12.37
2019-02-25T12:41:22.377Z,11.55
2019-02-25T12:43:50.217Z,11.27
2019-02-25T12:46:17.955Z,10.36
2019-02-25T12:48:45.712Z,10.22
2019-02-25T12:51:13.485Z,10.05
2019-02-25T12:53:41.265Z,10.92
2019-02-25T12:56:09.013Z,11.33
2019-02-25T12:58:36.850Z,11.15
2019-02-25T13:01:04.687Z,10.56
2019-02-25T13:03:32.463Z,10.18
2019-02-25T13:06:01.588Z,10.24
2019-02-25T13:08:29.548Z,10.02
2019-02-25T13:10:57.443Z,9.82
2019-02-25T13:13:25.204Z,9.49
2019-02-25T13:15:52.989Z,9.68
2019-02-25T13:18:20.769Z,9.42
2019-02-25T13:20:48.543Z,10.09
2019-02-25T13:23:17.546Z,10.21
2019-02-25T13:25:45.640Z,10.17
2019-02-25T13:28:13.402Z,9.79
2019-02-25T13:30:41.200Z,9.56
2019-02-25T13:33:08.975Z,8.62
2019-02-25T13:35:37.007Z,7.80
2019-02-25T13:38:06.843Z,7.65
2019-02-25T13:40:34.855Z,7.98
2019-02-25T13:43:02.632Z,7.52
2019-02-25T13:45:30.480Z,7.63
2019-02-25T13:47:58.230Z,7.43
2019-02-25T13:50:26.125Z,7.00
2019-02-25T13:52:53.966Z,8.17
2019-02-25T13:55:21.905Z,7.93
2019-02-25T13:57:49.817Z,8.02
2019-02-25T14:00:18.564Z,8.01
2019-02-25T14:02:46.600Z,8.78
2019-02-25T14:05:14.662Z,8.56
2019-02-25T14:07:42.584Z,8.07
2019-02-25T14:10:11.028Z,8.28
2019-02-25T14:12:38.803Z,8.19
2019-02-25T14:15:07.303Z,8.25
2019-02-25T14:17:35.348Z,7.95
2019-02-25T14:20:08.031Z,8.00
2019-02-25T14:22:35.793Z,8.10
2019-02-25T14:25:03.975Z,7.88
2019-02-25T14:27:31.776Z,7.51
2019-02-25T14:29:59.647Z,8.40
2019-02-25T14:32:29.838Z,8.91
2019-02-25T14:34:57.615Z,8.69
2019-02-25T14:37:25.603Z,8.22
2019-02-25T14:39:54.318Z,8.52
2019-02-25T14:42:26.063Z,8.82
2019-02-25T14:44:54.490Z,8.85
2019-02-25T14:47:31.133Z,9.08
2019-02-25T14:49:53.564Z,9.39
2019-02-25T14:52:21.834Z,9.18
2019-02-25T14:54:51.008Z,9.03
2019-02-25T14:57:20.416Z,9.06
2019-02-25T14:59:48.388Z,9.97
2019-02-25T15:02:16.506Z,10.37
2019-02-25T15:04:44.496Z,10.63
2019-02-25T15:07:15.109Z,10.87
2019-02-25T15:09:43.579Z,11.66
2019-02-25T15:12:12.714Z,11.90
2019-02-25T15:14:40.504Z,12.02
2019-02-25T15:17:10.446Z,12.23
2019-02-25T15:19:39.044Z,12.29
2019-02-25T15:22:08.044Z,13.05
2019-02-25T15:24:35.886Z,13.50
2019-02-25T15:27:04.485Z,14.01
2019-02-25T15:29:34.425Z,14.66
2019-02-25T15:32:02.955Z,15.29
2019-02-25T15:34:30.748Z,16.16
2019-02-25T15:37:00.606Z,17.16
2019-02-25T15:39:28.164Z,17.83
2019-02-25T15:41:55.914Z,18.64
2019-02-25T15:44:23.895Z,19.72
2019-02-25T15:46:51.954Z,20.37
2019-02-25T15:49:21.368Z,21.65
2019-02-25T15:51:49.575Z,22.06
2019-02-25T15:54:17.337Z,22.41
2019-02-25T15:56:45.104Z,22.67
2019-02-25T15:59:12.869Z,23.20
2019-02-25T16:01:40.963Z,23.72
2019-02-25T16:04:09.308Z,24.45
2019-02-25T16:06:39.818Z,24.47
2019-02-25T16:09:08.783Z,25.03
2019-02-25T16:11:38.831Z,25.44
2019-02-25T16:14:07.026Z,25.91
2019-02-25T16:16:35.176Z,26.32
2019-02-25T16:19:05.647Z,26.72
2019-02-25T16:21:32.990Z,27.13
2019-02-25T16:24:04.026Z,27.80
2019-02-25T16:26:32.125Z,28.27
2019-02-25T16:29:04.156Z,28.61
2019-02-25T16:31:31.497Z,29.05
2019-02-25T16:34:00.139Z,29.41
2019-02-25T16:36:28.940Z,29.73
2019-02-25T16:38:58.610Z,30.14
2019-02-25T16:41:30.086Z,30.39
2019-02-25T16:44:57.548Z,30.41
2019-02-25T16:47:34.639Z,30.21
2019-02-25T16:50:30.191Z,30.15
2019-02-25T16:52:58.178Z,30.57
2019-02-25T16:55:27.743Z,31.14
2019-02-25T16:57:55.700Z,31.34
2019-02-25T17:00:27.413Z,31.96
2019-02-25T17:02:54.684Z,32.13
2019-02-25T17:05:23.052Z,32.61
2019-02-25T17:07:51.105Z,32.79
2019-02-25T17:10:19.459Z,33.16
2019-02-25T17:12:50.095Z,33.77
2019-02-25T17:15:18.899Z,34.41
2019-02-25T17:17:46.638Z,35.49
2019-02-25T17:20:14.840Z,35.68
2019-02-25T17:22:42.914Z,36.13
2019-02-25T17:25:12.170Z,36.46
2019-02-25T17:27:40.513Z,36.74
2019-02-25T17:30:14.757Z,36.96
2019-02-25T17:32:44.075Z,37.53
2019-02-25T17:35:13.032Z,37.81
2019-02-25T17:37:40.769Z,37.54
2019-02-25T17:40:11.357Z,37.42
2019-02-25T17:42:40.503Z,37.70
2019-02-25T17:45:12.333Z,38.63
2019-02-25T17:47:41.471Z,38.88
2019-02-25T17:50:10.854Z,38.96
2019-02-25T17:52:40.285Z,39.77
2019-02-25T17:55:12.818Z,40.62
2019-02-25T17:57:40.726Z,40.95
2019-02-25T18:00:19.803Z,42.07
2019-02-25T18:02:47.668Z,42.62
2019-02-25T18:05:16.917Z,41.72
2019-02-25T18:07:46.531Z,41.62
2019-02-25T18:10:14.932Z,41.19
2019-02-25T18:12:42.810Z,41.49
2019-02-25T18:15:16.265Z,41.90
2019-02-25T18:17:44.885Z,42.17
2019-02-25T18:20:14.576Z,42.17
2019-02-25T18:22:42.358Z,43.26
2019-02-25T18:25:10.859Z,42.50
2019-02-25T18:27:39.229Z,41.74
2019-02-25T18:30:09.277Z,41.75
2019-02-25T18:32:38.689Z,42.08
2019-02-25T18:35:07.447Z,42.36
2019-02-25T18:37:37.552Z,43.22
2019-02-25T18:40:06.849Z,43.56
2019-02-25T18:42:36.480Z,43.46
2019-02-25T18:45:08.344Z,43.39
2019-02-25T18:47:36.642Z,43.11
2019-02-25T18:50:07.256Z,43.25
2019-02-25T18:52:36.798Z,43.24
2019-02-25T18:55:06.729Z,43.18
2019-02-25T18:57:35.464Z,43.32
2019-02-25T19:00:06.272Z,43.29
2019-02-25T19:02:35.567Z,43.43
2019-02-25T19:05:06.162Z,43.74
2019-02-25T19:07:34.059Z,43.73
2019-02-25T19:10:01.824Z,44.14
2019-02-25T19:12:30.276Z,43.98
2019-02-25T19:15:00.002Z,44.09
2019-02-25T19:17:29.374Z,44.42
2019-02-25T19:19:58.419Z,44.50
2019-02-25T19:22:27.411Z,44.70
2019-02-25T19:24:55.207Z,44.58
2019-02-25T19:27:23.003Z,44.51
2019-02-25T19:29:53.353Z,44.58
2019-02-25T19:32:23.041Z,45.11
2019-02-25T19:34:51.911Z,44.97
2019-02-25T19:37:20.697Z,45.19
2019-02-25T19:39:50.428Z,45.80
2019-02-25T19:42:20.840Z,45.68
2019-02-25T19:44:48.188Z,45.27
2019-02-25T19:47:17.286Z,45.45
2019-02-25T19:49:46.078Z,45.45
2019-02-25T19:52:16.237Z,45.82
2019-02-25T19:54:45.677Z,45.74
2019-02-25T19:57:14.063Z,45.96
2019-02-25T19:59:45.921Z,46.34
2019-02-25T20:02:13.019Z,46.35
2019-02-25T20:04:42.296Z,46.57
2019-02-25T20:07:10.556Z,46.67
2019-02-25T20:09:40.283Z,46.81
2019-02-25T20:12:08.042Z,46.96
2019-02-25T20:14:35.803Z,47.15
2019-02-25T20:17:03.690Z,47.64
2019-02-25T20:19:31.482Z,48.09
2019-02-25T20:21:59.499Z,48.28
2019-02-25T20:24:27.290Z,48.31
2019-02-25T20:26:58.491Z,48.61
2019-02-25T20:29:25.873Z,48.85
2019-02-25T20:31:54.575Z,49.18
2019-02-25T20:34:25.142Z,49.56
2019-02-25T20:36:55.436Z,49.96
2019-02-25T20:39:22.891Z,49.82
2019-02-25T20:41:52.269Z,49.97
2019-02-25T20:44:22.272Z,50.18
2019-02-25T20:46:52.642Z,50.37
2019-02-25T20:49:20.894Z,50.63
2019-02-25T20:51:50.523Z,50.89
2019-02-25T20:54:20.945Z,51.09
2019-02-25T20:56:51.119Z,51.32
2019-02-25T20:59:20.962Z,51.55
2019-02-25T21:01:50.567Z,51.96
2019-02-25T21:04:20.101Z,52.16
2019-02-25T21:06:48.076Z,52.10
2019-02-25T21:09:15.915Z,52.38
2019-02-25T21:11:44.055Z,52.61
2019-02-25T21:14:11.831Z,52.77
2019-02-25T21:16:39.592Z,52.94
2019-02-25T21:19:08.133Z,53.21
2019-02-25T21:21:38.887Z,53.43
2019-02-25T21:24:08.929Z,53.54
2019-02-25T21:26:38.620Z,53.51
2019-02-25T21:29:07.062Z,53.50
2019-02-25T21:31:35.898Z,53.49
2019-02-25T21:34:04.508Z,53.52
2019-02-25T21:36:33.884Z,53.53
2019-02-25T21:39:03.467Z,53.58
2019-02-25T21:41:31.243Z,53.61
2019-02-25T21:43:59.287Z,53.77
2019-02-25T21:46:29.094Z,53.94
2019-02-25T21:48:57.543Z,54.09
2019-02-25T21:51:28.099Z,54.14
2019-02-25T21:53:58.090Z,54.35
2019-02-25T21:56:26.997Z,54.40
2019-02-25T21:58:54.910Z,54.18
2019-02-25T22:01:22.705Z,53.80
2019-02-25T22:03:52.428Z,53.42
2019-02-25T22:06:22.093Z,53.40
2019-02-25T22:08:52.094Z,53.70
2019-02-25T22:11:21.582Z,54.27
2019-02-25T22:13:49.182Z,54.71
2019-02-25T22:16:16.940Z,54.53
2019-02-25T22:18:44.780Z,54.80
2019-02-25T22:21:14.189Z,54.79
2019-02-25T22:23:42.446Z,54.91
2019-02-25T22:26:10.216Z,54.94
2019-02-25T22:28:39.413Z,54.93
2019-02-25T22:31:10.333Z,55.21
2019-02-25T22:33:37.033Z,55.23
2019-02-25T22:36:05.058Z,55.34
2019-02-25T22:38:32.810Z,55.42
2019-02-25T22:41:02.299Z,55.55
2019-02-25T22:43:30.177Z,55.61
2019-02-25T22:45:59.898Z,55.68
2019-02-25T22:48:27.641Z,56.33
2019-02-25T22:50:57.673Z,56.58
2019-02-25T22:53:25.232Z,56.76
2019-02-25T22:55:54.701Z,56.87
2019-02-25T22:58:22.573Z,56.92
2019-02-25T23:00:51.494Z,56.96
2019-02-25T23:03:22.574Z,57.13
2019-02-25T23:05:50.876Z,57.34
2019-02-25T23:08:20.968Z,57.24
2019-02-25T23:10:49.818Z,57.39
2019-02-25T23:13:20.059Z,57.48
2019-02-25T23:15:49.438Z,57.93
2019-02-25T23:18:21.526Z,58.32
2019-02-25T23:20:47.748Z,58.53
2019-02-25T23:23:15.473Z,58.84
2019-02-25T23:25:43.261Z,59.22
2019-02-25T23:28:11.015Z,59.28
2019-02-25T23:30:39.637Z,60.08
2019-02-25T23:33:09.717Z,60.47
2019-02-25T23:35:40.755Z,60.36
2019-02-25T23:38:06.861Z,60.40
2019-02-25T23:40:37.402Z,60.37
2019-02-25T23:43:07.105Z,60.27
2019-02-25T23:45:35.615Z,60.47
2019-02-25T23:48:06.260Z,60.87
2019-02-25T23:50:36.056Z,60.93
2019-02-25T23:53:03.906Z,60.84
2019-02-25T23:55:31.669Z,61.04
2019-02-25T23:57:59.420Z,61.13
